Time;durP1;ratioP1;P1;durP2;ratioP2;P2;SDS_P1;SDS_P2;PMS_P1;PMS_P2;Temp;Humidity;BMP_temperature;BMP_pressure;BME280_temperature;BME280_humidity;BME280_pressure;Samples;Min_cycle;Max_cycle;Signal;HPM_P1;HPM_P2
2021/07/30 00:01:06;;;;;;;5.13;2.58;;;20.10;59.80;;;;;;5009114;28;20039;-73
2021/07/30 00:03:50;;;;;;;4.87;1.70;;;20.10;59.90;;;;;;5006281;28;20049;-72
2021/07/30 00:06:34;;;;;;;5.35;2.03;;;20.10;60.10;;;;;;4996878;28;20336;-73
2021/07/30 00:09:20;;;;;;;6.38;2.20;;;20.00;60.00;;;;;;5009489;28;20403;-73
2021/07/30 00:12:06;;;;;;;3.88;2.10;;;20.00;60.20;;;;;;4995132;28;20022;-73
2021/07/30 00:14:52;;;;;;;3.60;1.90;;;20.00;59.80;;;;;;5009829;28;20034;-73
2021/07/30 00:17:38;;;;;;;8.65;2.90;;;20.00;60.60;;;;;;5009416;28;20110;-73
2021/07/30 00:20:24;;;;;;;3.92;2.10;;;20.00;60.60;;;;;;4993178;28;20033;-73
2021/07/30 00:23:09;;;;;;;5.28;2.40;;;19.90;60.70;;;;;;5005027;28;20034;-72
2021/07/30 00:26:00;;;;;;;4.82;2.20;;;19.90;60.50;;;;;;5010769;28;20049;-73
2021/07/30 00:28:45;;;;;;;5.88;2.42;;;19.90;60.50;;;;;;5010248;28;20101;-71
2021/07/30 00:31:32;;;;;;;3.72;2.30;;;19.80;60.90;;;;;;5010765;28;20026;-71
2021/07/30 00:34:17;;;;;;;3.03;1.92;;;19.80;60.90;;;;;;5001580;28;20026;-72
2021/07/30 00:37:03;;;;;;;4.82;2.45;;;19.90;61.10;;;;;;5011774;28;20030;-72
2021/07/30 00:39:49;;;;;;;4.28;2.10;;;19.80;60.90;;;;;;5008759;28;20525;-72
2021/07/30 00:42:36;;;;;;;5.88;2.35;;;19.80;60.80;;;;;;5006900;28;20070;-72
2021/07/30 00:45:21;;;;;;;6.32;2.08;;;19.80;61.20;;;;;;5010666;28;20434;-72
2021/07/30 00:48:08;;;;;;;5.00;2.58;;;19.70;61.10;;;;;;5009274;28;20058;-72
2021/07/30 00:50:54;;;;;;;4.40;2.20;;;19.70;60.90;;;;;;5011422;28;20033;-72
2021/07/30 00:53:40;;;;;;;4.40;2.17;;;19.70;61.00;;;;;;5008988;28;20607;-72
2021/07/30 00:56:26;;;;;;;3.90;2.10;;;19.70;61.00;;;;;;5011765;28;20030;-72
2021/07/30 00:59:12;;;;;;;7.07;2.65;;;19.70;61.40;;;;;;5009357;28;20030;-72
2021/07/30 01:01:58;;;;;;;5.60;2.20;;;19.60;61.00;;;;;;5010969;28;20037;-72
2021/07/30 01:04:44;;;;;;;5.28;2.33;;;19.60;61.10;;;;;;5007876;28;20073;-72
2021/07/30 01:07:30;;;;;;;4.00;2.35;;;19.50;61.30;;;;;;5009925;28;20033;-71
2021/07/30 01:10:16;;;;;;;4.32;2.00;;;19.50;61.30;;;;;;4990858;28;20030;-71
2021/07/30 01:13:02;;;;;;;4.50;2.10;;;19.50;61.30;;;;;;5009540;28;20054;-71
2021/07/30 01:15:48;;;;;;;8.07;2.50;;;19.50;61.70;;;;;;5014638;28;20049;-71
2021/07/30 01:18:34;;;;;;;5.18;1.92;;;19.40;61.60;;;;;;5010325;28;20120;-71
2021/07/30 01:21:30;;;;;;;5.45;2.60;;;19.50;61.90;;;;;;5013526;28;20022;-72
2021/07/30 01:24:16;;;;;;;4.45;2.13;;;19.40;61.90;;;;;;5006244;28;20034;-71
2021/07/30 01:27:02;;;;;;;4.25;1.98;;;19.40;62.20;;;;;;5013675;28;20022;-72
2021/07/30 01:29:49;;;;;;;3.88;1.90;;;19.30;62.20;;;;;;5012770;28;20042;-72
2021/07/30 01:32:35;;;;;;;5.68;2.15;;;19.30;62.10;;;;;;5013958;28;20022;-71
2021/07/30 01:35:21;;;;;;;3.95;2.10;;;19.30;62.30;;;;;;5013319;28;20026;-72
2021/07/30 01:38:06;;;;;;;4.57;2.25;;;19.30;62.40;;;;;;5015529;28;20018;-72
2021/07/30 01:40:52;;;;;;;3.40;2.00;;;19.30;62.30;;;;;;5011966;28;20486;-71
2021/07/30 01:43:40;;;;;;;3.40;2.08;;;19.30;62.40;;;;;;5012429;28;20096;-71
2021/07/30 01:46:26;;;;;;;6.07;2.15;;;19.20;62.50;;;;;;5011067;28;20044;-71
2021/07/30 01:49:12;;;;;;;3.05;1.80;;;19.20;62.70;;;;;;5012920;28;20124;-71
2021/07/30 01:51:58;;;;;;;4.95;1.95;;;19.20;62.70;;;;;;5011410;28;20026;-72
2021/07/30 01:54:45;;;;;;;4.75;2.30;;;19.20;62.70;;;;;;5012372;28;20483;-72
2021/07/30 01:57:31;;;;;;;5.10;2.30;;;19.10;62.60;;;;;;5011318;28;20474;-71
2021/07/30 02:00:17;;;;;;;2.83;2.17;;;19.10;62.90;;;;;;5012096;28;20374;-71
2021/07/30 02:03:03;;;;;;;6.05;2.00;;;19.10;63.00;;;;;;5009012;28;20040;-71
2021/07/30 02:05:49;;;;;;;3.72;2.05;;;19.10;63.20;;;;;;5011746;28;20037;-71
2021/07/30 02:08:36;;;;;;;7.00;2.50;;;19.10;63.50;;;;;;4998979;28;20034;-71
2021/07/30 02:11:20;;;;;;;6.10;2.05;;;19.00;63.80;;;;;;5011125;28;20565;-71
2021/07/30 02:14:16;;;;;;;4.07;2.30;;;19.00;63.60;;;;;;5013713;28;20096;-71
2021/07/30 02:17:00;;;;;;;4.90;2.15;;;19.00;63.60;;;;;;5012059;28;20046;-72
2021/07/30 02:19:44;;;;;;;7.05;3.10;;;18.90;63.80;;;;;;5013333;28;20402;-71
2021/07/30 02:22:28;;;;;;;9.10;2.30;;;18.90;64.00;;;;;;5010734;28;20111;-71
2021/07/30 02:25:12;;;;;;;6.80;2.30;;;18.90;64.00;;;;;;5013618;28;20088;-71
2021/07/30 02:27:56;;;;;;;3.42;2.50;;;18.90;64.30;;;;;;4998049;28;20037;-71
2021/07/30 02:30:40;;;;;;;5.67;2.80;;;18.80;64.90;;;;;;5008669;28;20125;-71
2021/07/30 02:33:24;;;;;;;4.03;2.37;;;18.80;64.40;;;;;;5013301;28;20088;-71
2021/07/30 02:36:08;;;;;;;4.47;2.45;;;18.80;64.50;;;;;;5010744;28;20040;-72
2021/07/30 02:38:52;;;;;;;6.63;2.83;;;18.70;64.70;;;;;;5012531;28;20061;-73
2021/07/30 02:41:36;;;;;;;4.43;2.20;;;18.70;64.70;;;;;;5011866;28;20056;-74
2021/07/30 02:44:20;;;;;;;3.90;2.47;;;18.70;64.90;;;;;;4994469;28;20352;-74
2021/07/30 02:47:05;;;;;;;5.53;2.45;;;18.70;65.00;;;;;;5009064;28;20284;-72
2021/07/30 02:49:49;;;;;;;4.25;2.60;;;18.70;65.20;;;;;;4994226;28;20053;-72
2021/07/30 02:52:33;;;;;;;6.38;2.22;;;18.60;65.20;;;;;;5014041;28;20102;-72
2021/07/30 02:55:17;;;;;;;4.22;2.45;;;18.60;65.20;;;;;;5021110;28;20104;-72
2021/07/30 02:58:01;;;;;;;4.05;2.28;;;18.60;65.30;;;;;;5010066;28;20060;-72
2021/07/30 03:00:45;;;;;;;6.10;2.83;;;18.60;65.30;;;;;;5014674;28;20402;-72
2021/07/30 03:03:29;;;;;;;5.27;2.20;;;18.60;65.40;;;;;;5014513;28;20045;-71
2021/07/30 03:06:13;;;;;;;3.30;2.03;;;18.50;65.50;;;;;;5010842;28;20129;-72
2021/07/30 03:08:57;;;;;;;8.43;2.58;;;18.60;65.70;;;;;;5012936;28;20044;-72
2021/07/30 03:11:41;;;;;;;7.32;2.40;;;18.50;65.60;;;;;;5010445;28;20059;-72
2021/07/30 03:14:24;;;;;;;4.70;2.30;;;18.50;66.00;;;;;;5012869;28;20036;-72
2021/07/30 03:17:08;;;;;;;4.03;2.17;;;18.50;66.00;;;;;;5011260;28;20037;-72
2021/07/30 03:19:52;;;;;;;6.47;2.63;;;18.50;66.30;;;;;;5011947;28;20403;-73
2021/07/30 03:22:37;;;;;;;4.47;2.10;;;18.50;66.40;;;;;;5009806;28;20156;-72
2021/07/30 03:25:21;;;;;;;5.83;1.90;;;18.50;66.50;;;;;;5011960;28;20095;-73
2021/07/30 03:28:05;;;;;;;3.17;2.08;;;18.50;66.70;;;;;;4992940;28;20121;-72
2021/07/30 03:30:49;;;;;;;3.87;2.63;;;18.50;66.70;;;;;;4998261;28;20406;-73
2021/07/30 03:33:33;;;;;;;4.25;2.05;;;18.40;66.60;;;;;;5012001;28;20064;-73
2021/07/30 03:36:17;;;;;;;3.37;2.30;;;18.50;66.80;;;;;;5009999;28;20084;-72
2021/07/30 03:39:01;;;;;;;3.58;2.35;;;18.50;66.80;;;;;;5012521;28;20064;-72
2021/07/30 03:41:45;;;;;;;3.15;2.13;;;18.50;66.90;;;;;;5009645;28;20036;-72
2021/07/30 03:44:29;;;;;;;3.42;2.20;;;18.50;67.30;;;;;;5012325;28;20101;-72
2021/07/30 03:47:13;;;;;;;5.43;2.43;;;18.50;67.40;;;;;;4995301;28;20091;-73
2021/07/30 03:49:57;;;;;;;4.50;2.30;;;18.50;67.30;;;;;;5010373;28;20049;-72
2021/07/30 03:52:41;;;;;;;5.43;2.37;;;18.50;67.50;;;;;;5009732;28;20045;-72
2021/07/30 03:55:25;;;;;;;5.13;2.33;;;18.50;67.60;;;;;;5009807;28;20056;-71
2021/07/30 03:58:09;;;;;;;5.78;2.22;;;18.50;67.80;;;;;;4991552;28;20029;-71
2021/07/30 04:00:53;;;;;;;3.05;2.40;;;18.50;68.00;;;;;;5001766;28;20037;-71
2021/07/30 04:03:42;;;;;;;5.75;2.10;;;18.60;68.10;;;;;;5009483;28;20084;-71
2021/07/30 04:06:26;;;;;;;5.57;2.63;;;18.60;68.30;;;;;;5008867;28;20037;-75
2021/07/30 04:09:11;;;;;;;3.88;2.20;;;18.50;68.00;;;;;;5011978;28;20169;-75
2021/07/30 04:11:55;;;;;;;3.65;2.15;;;18.50;68.00;;;;;;5009362;28;20184;-74
2021/07/30 04:14:40;;;;;;;5.50;2.43;;;18.50;68.20;;;;;;5011761;28;20532;-74
2021/07/30 04:17:25;;;;;;;3.88;2.10;;;18.50;68.40;;;;;;5007520;28;20042;-74
2021/07/30 04:20:11;;;;;;;4.45;2.88;;;18.50;68.40;;;;;;5001063;28;20057;-75
2021/07/30 04:22:57;;;;;;;4.22;2.33;;;18.50;68.50;;;;;;4995683;28;20351;-75
2021/07/30 04:25:43;;;;;;;3.47;2.17;;;18.50;68.60;;;;;;5009273;28;20065;-72
2021/07/30 04:28:29;;;;;;;7.32;2.58;;;18.50;68.80;;;;;;5009298;28;20030;-71
2021/07/30 04:31:15;;;;;;;4.07;2.45;;;18.50;68.80;;;;;;4997391;28;20022;-71
2021/07/30 04:34:00;;;;;;;4.90;2.60;;;18.50;68.90;;;;;;5010322;28;20044;-71
2021/07/30 04:36:46;;;;;;;4.30;2.95;;;18.50;69.00;;;;;;5008245;28;20038;-72
2021/07/30 04:39:33;;;;;;;4.70;2.47;;;18.50;69.00;;;;;;5010473;28;20030;-73
2021/07/30 04:42:18;;;;;;;4.53;2.55;;;18.50;69.20;;;;;;5011610;28;20041;-73
2021/07/30 04:45:05;;;;;;;5.40;2.58;;;18.50;69.60;;;;;;5017803;28;20037;-72
2021/07/30 04:47:51;;;;;;;4.15;2.15;;;18.50;69.50;;;;;;5014436;28;20044;-75
2021/07/30 04:50:37;;;;;;;4.00;2.78;;;18.50;69.60;;;;;;5011774;28;20125;-75
2021/07/30 04:53:22;;;;;;;6.88;2.80;;;18.50;69.60;;;;;;5013747;28;20060;-73
2021/07/30 04:56:16;;;;;;;5.18;2.45;;;18.60;69.70;;;;;;5012513;28;20469;-73
2021/07/30 04:59:03;;;;;;;5.50;2.75;;;18.60;69.70;;;;;;5011577;28;20034;-72
2021/07/30 05:01:49;;;;;;;3.88;2.40;;;18.70;70.00;;;;;;5011078;28;20064;-74
2021/07/30 05:04:36;;;;;;;4.85;2.38;;;18.60;69.80;;;;;;4995590;28;20428;-74
2021/07/30 05:07:22;;;;;;;3.90;2.47;;;18.60;69.80;;;;;;4998519;28;20096;-74
2021/07/30 05:10:09;;;;;;;4.30;2.60;;;18.70;70.00;;;;;;5013821;28;20386;-72
2021/07/30 05:12:55;;;;;;;4.57;2.45;;;18.70;70.20;;;;;;5014216;28;20026;-76
2021/07/30 05:15:41;;;;;;;5.28;2.40;;;18.70;70.40;;;;;;5012742;28;20026;-75
2021/07/30 05:18:26;;;;;;;4.18;2.30;;;18.70;70.20;;;;;;5005982;28;20065;-76
2021/07/30 05:21:12;;;;;;;3.60;2.22;;;18.70;70.50;;;;;;5004792;28;20026;-76
2021/07/30 05:23:58;;;;;;;5.22;2.60;;;18.80;70.40;;;;;;5011816;28;20072;-75
2021/07/30 05:26:44;;;;;;;3.85;2.50;;;18.80;70.50;;;;;;4993743;28;20085;-76
2021/07/30 05:29:30;;;;;;;10.07;2.85;;;18.90;70.50;;;;;;4993440;28;20027;-73
2021/07/30 05:32:16;;;;;;;5.97;2.58;;;18.90;70.50;;;;;;4994609;28;20061;-74
2021/07/30 05:35:02;;;;;;;5.03;2.88;;;19.00;70.60;;;;;;5015666;28;20022;-74
2021/07/30 05:37:48;;;;;;;5.70;2.47;;;19.00;70.60;;;;;;5007464;28;20102;-74
2021/07/30 05:40:34;;;;;;;7.05;2.75;;;19.10;70.80;;;;;;5012734;28;20025;-74
2021/07/30 05:43:19;;;;;;;6.05;2.75;;;19.10;70.60;;;;;;5011375;28;20069;-75
2021/07/30 05:46:06;;;;;;;4.32;2.58;;;19.10;70.60;;;;;;5012707;28;20061;-74
2021/07/30 05:48:56;;;;;;;5.00;2.95;;;19.20;70.60;;;;;;5013135;28;20054;-75
2021/07/30 05:51:42;;;;;;;4.65;2.28;;;19.30;70.80;;;;;;4986508;28;20070;-74
2021/07/30 05:54:30;;;;;;;3.45;2.22;;;19.30;70.70;;;;;;5009094;28;20034;-73
2021/07/30 05:57:16;;;;;;;5.03;2.25;;;19.30;71.00;;;;;;5008169;28;20037;-74
2021/07/30 06:00:04;;;;;;;6.00;2.90;;;19.40;70.50;;;;;;5011388;28;20033;-74
2021/07/30 06:02:50;;;;;;;7.53;2.90;;;19.50;70.30;;;;;;5013399;28;20038;-74
2021/07/30 06:05:36;;;;;;;3.70;2.65;;;19.50;70.50;;;;;;5011687;28;20510;-75
2021/07/30 06:08:21;;;;;;;4.32;2.78;;;19.60;70.30;;;;;;4993430;28;20494;-75
2021/07/30 06:11:05;;;;;;;6.40;3.23;;;19.60;70.40;;;;;;5002119;28;20486;-70
2021/07/30 06:13:49;;;;;;;5.93;3.35;;;19.70;70.50;;;;;;5013752;28;20272;-70
2021/07/30 06:16:33;;;;;;;4.80;2.87;;;19.70;70.90;;;;;;5011180;28;20042;-71
2021/07/30 06:19:17;;;;;;;6.10;2.67;;;19.80;70.30;;;;;;5011768;28;20037;-70
2021/07/30 06:22:02;;;;;;;8.05;3.38;;;19.80;70.20;;;;;;5010254;28;20057;-70
2021/07/30 06:24:46;;;;;;;5.60;2.47;;;19.90;70.00;;;;;;5013643;28;20037;-71
2021/07/30 06:27:30;;;;;;;6.65;2.55;;;19.90;69.80;;;;;;5010962;28;20060;-70
2021/07/30 06:30:14;;;;;;;3.87;2.70;;;20.00;70.00;;;;;;5012533;28;20108;-70
2021/07/30 06:32:58;;;;;;;6.65;2.85;;;20.00;69.70;;;;;;4993834;28;20390;-71
2021/07/30 06:35:42;;;;;;;5.17;2.33;;;20.10;69.60;;;;;;4998528;28;20108;-72
2021/07/30 06:38:26;;;;;;;7.20;2.60;;;20.20;69.50;;;;;;5011726;28;20155;-75
2021/07/30 06:41:17;;;;;;;5.65;2.67;;;20.20;69.60;;;;;;5010866;28;20327;-73
2021/07/30 06:44:01;;;;;;;4.97;2.53;;;20.30;69.60;;;;;;5011820;28;20048;-71
2021/07/30 06:46:45;;;;;;;5.40;2.73;;;20.30;69.40;;;;;;5001410;28;20164;-70
2021/07/30 06:49:29;;;;;;;4.72;2.55;;;20.40;69.50;;;;;;5010451;28;20470;-70
2021/07/30 06:52:13;;;;;;;5.18;2.85;;;20.50;69.00;;;;;;5008708;28;20025;-70
2021/07/30 06:54:57;;;;;;;4.90;2.67;;;20.60;69.60;;;;;;5010352;28;20092;-71
2021/07/30 06:57:41;;;;;;;6.45;3.13;;;20.60;69.40;;;;;;4995678;28;20033;-71
2021/07/30 07:00:25;;;;;;;4.80;2.20;;;20.70;69.40;;;;;;5006063;28;20085;-71
2021/07/30 07:03:09;;;;;;;6.70;2.85;;;20.70;69.40;;;;;;5009618;28;20814;-71
2021/07/30 07:05:53;;;;;;;5.80;3.13;;;20.80;69.10;;;;;;5005149;28;20111;-70
2021/07/30 07:08:19;;;;;;;6.68;2.53;;;20.90;68.70;;;;;;5016431;28;20506;-71
2021/07/30 07:10:45;;;;;;;5.72;2.70;;;21.00;68.10;;;;;;5007327;28;20075;-71
2021/07/30 07:13:10;;;;;;;4.95;2.72;;;21.00;68.10;;;;;;5006914;28;20018;-71
2021/07/30 07:15:41;;;;;;;4.82;2.92;;;21.10;68.00;;;;;;5011196;28;20462;-70
2021/07/30 07:18:06;;;;;;;7.80;2.47;;;21.10;68.00;;;;;;5010627;28;20063;-70
2021/07/30 07:20:32;;;;;;;6.93;2.65;;;21.20;68.00;;;;;;5007560;28;20168;-71
2021/07/30 07:22:57;;;;;;;9.48;2.50;;;21.20;67.90;;;;;;5009906;28;20040;-71
2021/07/30 07:25:23;;;;;;;13.48;4.20;;;21.30;68.00;;;;;;5004596;28;20453;-71
2021/07/30 07:27:48;;;;;;;6.13;2.70;;;21.40;68.20;;;;;;5008834;28;20056;-71
2021/07/30 07:30:14;;;;;;;3.47;2.30;;;21.40;67.90;;;;;;5000801;28;20077;-71
2021/07/30 07:32:39;;;;;;;7.13;2.85;;;21.50;67.50;;;;;;5007535;28;20360;-70
2021/07/30 07:35:05;;;;;;;8.05;3.85;;;21.50;67.10;;;;;;5009274;28;20113;-70
2021/07/30 07:37:31;;;;;;;7.32;3.53;;;21.70;66.70;;;;;;5007401;28;20390;-70
2021/07/30 07:39:56;;;;;;;8.27;4.13;;;21.70;66.20;;;;;;5008431;28;20064;-71
2021/07/30 07:42:22;;;;;;;8.63;4.38;;;21.80;65.90;;;;;;5009444;28;20076;-70
2021/07/30 07:44:51;;;;;;;8.27;3.22;;;21.90;65.80;;;;;;5009596;28;20036;-70
2021/07/30 07:47:16;;;;;;;4.82;3.20;;;21.90;65.70;;;;;;5007294;28;20033;-71
2021/07/30 07:49:42;;;;;;;4.18;3.03;;;22.00;65.60;;;;;;5008146;28;20168;-71
2021/07/30 07:52:07;;;;;;;6.22;3.25;;;22.10;65.50;;;;;;5008210;28;20490;-71
2021/07/30 07:54:33;;;;;;;5.95;2.85;;;22.10;65.30;;;;;;5008498;28;20068;-71
2021/07/30 07:57:01;;;;;;;4.95;2.78;;;22.20;64.80;;;;;;5021450;28;20038;-71
2021/07/30 07:59:28;;;;;;;5.95;3.83;;;22.20;65.00;;;;;;5000164;28;20167;-72
2021/07/30 08:01:53;;;;;;;4.53;2.78;;;22.30;64.00;;;;;;5008937;28;20041;-71
2021/07/30 08:04:19;;;;;;;8.98;3.45;;;22.40;63.90;;;;;;5009257;28;20034;-71
2021/07/30 08:06:44;;;;;;;5.13;2.72;;;22.50;63.70;;;;;;5008632;28;20034;-71
2021/07/30 08:09:10;;;;;;;6.95;2.92;;;22.50;63.20;;;;;;5009167;28;20046;-71
2021/07/30 08:11:36;;;;;;;6.20;3.28;;;22.60;62.80;;;;;;5010005;28;20088;-71
2021/07/30 08:14:02;;;;;;;7.40;3.05;;;22.70;62.50;;;;;;5011955;28;20133;-71
2021/07/30 08:16:27;;;;;;;7.57;2.85;;;22.70;62.10;;;;;;5006635;28;20453;-70
2021/07/30 08:18:54;;;;;;;7.15;3.72;;;22.80;62.30;;;;;;5010094;28;20030;-71
2021/07/30 08:21:20;;;;;;;8.90;5.05;;;22.80;61.80;;;;;;5018360;28;20034;-71
2021/07/30 08:23:46;;;;;;;7.82;3.60;;;22.90;61.50;;;;;;5016624;28;20030;-71
2021/07/30 08:26:12;;;;;;;6.15;2.88;;;23.00;61.10;;;;;;5003430;28;20117;-71
2021/07/30 08:28:37;;;;;;;5.90;2.90;;;23.10;61.20;;;;;;5006042;28;20033;-71
2021/07/30 08:31:03;;;;;;;4.13;2.63;;;23.10;61.00;;;;;;5011847;28;20478;-71
2021/07/30 08:33:28;;;;;;;5.80;3.22;;;23.20;60.40;;;;;;5013637;28;20033;-71
2021/07/30 08:35:54;;;;;;;7.57;3.63;;;23.20;60.10;;;;;;5011429;28;20026;-71
2021/07/30 08:38:19;;;;;;;6.70;3.05;;;23.30;59.80;;;;;;5011466;28;20036;-71
2021/07/30 08:40:45;;;;;;;6.45;2.78;;;23.30;58.70;;;;;;5010574;28;20034;-71
2021/07/30 08:43:14;;;;;;;6.78;3.00;;;23.30;58.80;;;;;;5005980;28;20053;-71
2021/07/30 08:45:40;;;;;;;7.60;3.38;;;23.30;58.30;;;;;;5011104;28;20061;-71
2021/07/30 08:48:08;;;;;;;7.20;3.75;;;23.40;58.20;;;;;;5010465;28;20060;-71
2021/07/30 08:50:36;;;;;;;8.23;3.55;;;23.50;58.40;;;;;;5007782;28;20053;-70
2021/07/30 08:53:04;;;;;;;10.30;3.25;;;23.50;58.20;;;;;;5013128;28;20026;-71
2021/07/30 08:55:30;;;;;;;8.35;3.20;;;23.60;57.90;;;;;;5007458;28;20034;-70
2021/07/30 08:57:56;;;;;;;6.13;3.13;;;23.60;57.90;;;;;;5010764;28;20121;-71
2021/07/30 09:00:22;;;;;;;3.90;2.72;;;23.60;57.80;;;;;;5009077;28;20120;-70
2021/07/30 09:02:47;;;;;;;6.15;3.15;;;23.70;57.70;;;;;;5002433;28;20046;-70
2021/07/30 09:05:32;;;;;;;6.43;3.17;;;23.70;57.90;;;;;;5005658;28;20053;-70
2021/07/30 09:08:00;;;;;;;6.35;2.88;;;23.80;57.10;;;;;;5004945;28;20049;-70
2021/07/30 09:10:33;;;;;;;6.28;3.13;;;23.80;56.50;;;;;;5008651;28;20038;-72
2021/07/30 09:13:18;;;;;;;7.65;3.05;;;23.80;56.80;;;;;;5021335;28;20484;-71
2021/07/30 09:15:46;;;;;;;5.53;2.70;;;23.90;56.50;;;;;;5003500;28;20029;-71
2021/07/30 09:18:29;;;;;;;5.18;3.55;;;23.90;56.10;;;;;;5009289;28;20437;-71
2021/07/30 09:21:13;;;;;;;5.18;2.60;;;24.00;56.00;;;;;;5006398;28;20025;-71
2021/07/30 09:23:47;;;;;;;4.18;2.42;;;24.00;55.60;;;;;;5001602;28;20042;-71
2021/07/30 09:26:44;;;;;;;7.07;2.90;;;24.10;56.00;;;;;;4998968;28;20517;-71
2021/07/30 09:29:15;;;;;;;7.75;2.60;;;24.20;56.50;;;;;;5004319;28;20506;-71
2021/07/30 09:31:44;;;;;;;5.10;2.80;;;24.30;56.00;;;;;;5010525;28;20377;-71
2021/07/30 09:34:18;;;;;;;5.82;2.55;;;24.40;55.80;;;;;;5004359;28;20390;-72
2021/07/30 09:36:48;;;;;;;5.38;2.70;;;24.40;54.80;;;;;;5009023;28;20034;-71
2021/07/30 09:39:15;;;;;;;6.95;2.75;;;24.50;54.90;;;;;;5012440;28;20532;-71
2021/07/30 09:41:50;;;;;;;6.00;2.47;;;24.60;54.20;;;;;;5010018;28;20048;-71
2021/07/30 09:44:17;;;;;;;6.40;2.78;;;24.50;53.70;;;;;;5009208;28;20613;-70
2021/07/30 09:46:53;;;;;;;4.60;2.42;;;24.60;53.80;;;;;;5009653;28;20093;-70
2021/07/30 09:49:19;;;;;;;8.35;2.72;;;24.70;54.00;;;;;;5010948;28;20570;-70
2021/07/30 09:51:44;;;;;;;6.22;2.60;;;24.80;54.40;;;;;;5014441;28;20104;-71
2021/07/30 09:54:10;;;;;;;4.88;2.88;;;24.90;53.90;;;;;;4998056;28;20100;-70
2021/07/30 09:56:35;;;;;;;6.25;3.10;;;25.00;53.80;;;;;;5009144;28;20437;-70
2021/07/30 09:59:01;;;;;;;5.25;2.47;;;25.10;53.40;;;;;;5010494;28;20081;-70
2021/07/30 10:01:27;;;;;;;5.97;2.50;;;25.10;53.60;;;;;;5009616;28;20038;-71
2021/07/30 10:03:54;;;;;;;3.65;2.40;;;25.20;53.20;;;;;;5010616;28;20204;-71
2021/07/30 10:06:20;;;;;;;5.15;2.30;;;25.30;53.10;;;;;;5011331;28;20026;-71
2021/07/30 10:08:46;;;;;;;5.50;2.65;;;25.40;52.80;;;;;;5011162;28;20065;-71
2021/07/30 10:11:12;;;;;;;3.05;2.25;;;25.40;52.60;;;;;;4992573;28;20034;-71
2021/07/30 10:13:50;;;;;;;6.28;3.45;;;25.40;52.80;;;;;;5013549;28;20049;-71
2021/07/30 10:16:18;;;;;;;5.57;2.90;;;25.50;52.30;;;;;;5009663;28;20390;-70
2021/07/30 10:18:44;;;;;;;3.67;2.17;;;25.50;52.30;;;;;;5001527;28;20030;-70
2021/07/30 10:21:18;;;;;;;5.78;2.75;;;25.50;53.00;;;;;;5001236;28;20041;-70
2021/07/30 10:23:47;;;;;;;4.80;2.67;;;25.60;52.60;;;;;;5013438;28;20061;-70
2021/07/30 10:26:14;;;;;;;5.28;3.17;;;25.60;52.40;;;;;;5009012;28;20273;-70
2021/07/30 10:28:39;;;;;;;5.28;2.90;;;25.50;52.60;;;;;;5010605;28;20040;-71
2021/07/30 10:31:10;;;;;;;4.97;2.60;;;25.50;52.40;;;;;;5009537;28;20029;-70
2021/07/30 10:33:37;;;;;;;4.90;2.50;;;25.50;52.10;;;;;;5018932;28;20041;-71
2021/07/30 10:36:12;;;;;;;7.15;2.63;;;25.50;52.90;;;;;;5032408;28;20017;-71
2021/07/30 10:38:39;;;;;;;7.05;2.80;;;25.60;52.10;;;;;;5024782;28;20029;-71
2021/07/30 10:41:23;;;;;;;3.20;2.25;;;25.60;51.30;;;;;;5025001;28;20088;-71
2021/07/30 10:44:08;;;;;;;6.10;2.50;;;25.60;50.90;;;;;;5030983;28;20119;-70
2021/07/30 10:47:19;;;;;;;6.25;2.20;;;25.60;51.00;;;;;;5013059;28;20390;-70
2021/07/30 10:50:04;;;;;;;4.22;2.55;;;25.60;51.20;;;;;;5015019;28;20426;-70
2021/07/30 10:52:48;;;;;;;6.22;3.15;;;25.50;50.80;;;;;;5032798;28;20036;-70
2021/07/30 10:55:41;;;;;;;5.55;2.35;;;25.50;50.80;;;;;;5023722;28;20060;-70
2021/07/30 10:58:43;;;;;;;4.13;2.55;;;25.60;51.60;;;;;;5032633;28;20039;-71
2021/07/30 11:01:27;;;;;;;4.72;2.47;;;25.60;51.50;;;;;;5020526;28;20033;-70
2021/07/30 11:04:11;;;;;;;5.35;2.13;;;25.70;51.10;;;;;;5012784;28;20036;-70
2021/07/30 11:06:56;;;;;;;4.47;2.30;;;25.80;51.70;;;;;;5021637;28;20100;-70
2021/07/30 11:09:40;;;;;;;4.95;2.40;;;25.80;51.20;;;;;;5032429;28;20091;-70
2021/07/30 11:12:31;;;;;;;;;;;25.90;50.60;;;;;;5031632;28;20176;-69
2021/07/30 11:15:16;;;;;;;5.55;2.22;;;25.80;51.00;;;;;;5032362;28;19951;-70
2021/07/30 11:18:00;;;;;;;8.77;2.33;;;25.80;50.60;;;;;;5017512;28;20037;-70
2021/07/30 11:20:57;;;;;;;3.90;2.80;;;25.80;50.30;;;;;;5012385;28;20427;-70
2021/07/30 11:23:44;;;;;;;8.15;2.60;;;25.80;50.90;;;;;;5000212;28;20405;-70
2021/07/30 11:26:29;;;;;;;3.83;2.50;;;25.80;50.80;;;;;;5011392;28;20108;-70
2021/07/30 11:29:16;;;;;;;8.35;2.53;;;25.80;50.70;;;;;;5027201;28;20116;-70
2021/07/30 11:32:01;;;;;;;4.25;2.33;;;25.80;50.90;;;;;;5009410;28;20072;-71
2021/07/30 11:34:48;;;;;;;5.38;2.40;;;25.90;50.40;;;;;;5012204;28;20068;-70
2021/07/30 11:37:32;;;;;;;4.68;2.55;;;25.80;49.90;;;;;;5008630;28;20039;-70
2021/07/30 11:39:58;;;;;;;5.43;2.55;;;25.80;49.90;;;;;;5011007;28;20025;-70
2021/07/30 11:42:28;;;;;;;5.45;2.75;;;25.90;50.30;;;;;;5009863;28;20063;-70
2021/07/30 11:45:19;;;;;;;5.45;2.97;;;25.90;50.10;;;;;;5014499;28;20473;-71
2021/07/30 11:48:11;;;;;;;4.35;2.33;;;25.90;49.90;;;;;;5010987;28;20111;-71
2021/07/30 11:50:58;;;;;;;4.13;2.30;;;25.80;49.60;;;;;;5012083;28;20044;-70
2021/07/30 11:53:43;;;;;;;6.93;2.42;;;25.90;49.90;;;;;;5008868;28;20068;-70
2021/07/30 11:56:41;;;;;;;5.18;2.25;;;25.90;50.10;;;;;;5014128;28;20105;-70
2021/07/30 11:59:41;;;;;;;4.95;2.55;;;25.90;50.70;;;;;;5010087;28;20569;-70
2021/07/30 12:02:26;;;;;;;6.75;2.53;;;26.00;51.10;;;;;;5022008;28;20048;-72
2021/07/30 12:05:10;;;;;;;8.80;3.00;;;26.20;50.80;;;;;;5003918;28;20076;-70
2021/07/30 12:07:56;;;;;;;6.20;2.58;;;26.30;50.50;;;;;;5011031;28;20468;-70
2021/07/30 12:10:41;;;;;;;6.25;2.67;;;26.30;50.40;;;;;;5010060;28;20068;-70
2021/07/30 12:13:27;;;;;;;;;;;26.40;50.40;;;;;;5011955;28;20037;-70
2021/07/30 12:16:14;;;;;;;5.88;2.35;;;26.40;51.00;;;;;;4992309;28;19913;-70
2021/07/30 12:18:59;;;;;;;5.70;2.60;;;26.50;50.50;;;;;;4999273;28;20037;-70
2021/07/30 12:22:15;;;;;;;7.38;3.85;;;26.50;50.20;;;;;;5010103;28;20128;-70
2021/07/30 12:24:59;;;;;;;5.15;2.55;;;26.60;50.40;;;;;;4977148;28;20591;-70
2021/07/30 12:27:45;;;;;;;3.63;2.35;;;26.70;50.30;;;;;;5010607;28;20512;-70
2021/07/30 12:30:30;;;;;;;5.40;2.60;;;26.80;50.40;;;;;;5009912;28;20108;-70
2021/07/30 12:33:32;;;;;;;3.58;2.30;;;26.90;50.70;;;;;;5015561;28;20064;-70
2021/07/30 12:36:17;;;;;;;4.50;2.50;;;27.00;50.40;;;;;;5010113;28;20135;-70
2021/07/30 12:39:03;;;;;;;7.35;2.65;;;27.10;50.10;;;;;;5011479;28;20077;-71
2021/07/30 12:41:51;;;;;;;5.32;2.63;;;27.20;49.80;;;;;;5008258;28;20414;-70
2021/07/30 12:44:35;;;;;;;4.82;1.95;;;27.20;49.40;;;;;;5010412;28;20057;-70
2021/07/30 12:47:19;;;;;;;9.98;2.58;;;27.20;49.00;;;;;;5007060;28;20037;-70
2021/07/30 12:50:22;;;;;;;3.92;2.20;;;27.30;48.70;;;;;;5008090;28;20053;-70
2021/07/30 12:53:09;;;;;;;5.30;2.47;;;27.30;49.20;;;;;;5006107;28;20037;-70
2021/07/30 12:56:01;;;;;;;4.45;2.47;;;27.30;49.00;;;;;;5015323;28;20033;-73
2021/07/30 12:58:56;;;;;;;3.72;2.15;;;27.40;49.00;;;;;;4988607;28;20106;-70
2021/07/30 13:01:40;;;;;;;10.50;2.92;;;27.40;48.60;;;;;;4998352;28;20044;-70
2021/07/30 13:04:24;;;;;;;6.63;2.80;;;27.40;48.30;;;;;;5008462;28;20033;-71
2021/07/30 13:07:12;;;;;;;9.65;2.70;;;27.40;48.60;;;;;;5007908;28;20517;-70
2021/07/30 13:09:56;;;;;;;4.55;2.30;;;27.50;48.60;;;;;;5006375;28;20045;-71
2021/07/30 13:12:40;;;;;;;3.13;2.50;;;27.50;48.60;;;;;;5011375;28;20089;-71
2021/07/30 13:15:24;;;;;;;5.80;2.30;;;27.60;48.90;;;;;;5004463;28;20037;-71
2021/07/30 13:18:08;;;;;;;5.20;2.47;;;27.60;48.90;;;;;;5020857;28;20029;-71
2021/07/30 13:20:52;;;;;;;5.32;2.20;;;27.60;49.00;;;;;;4997181;28;20131;-71
2021/07/30 13:23:36;;;;;;;5.15;2.30;;;27.70;48.60;;;;;;5008155;28;20504;-71
2021/07/30 13:26:20;;;;;;;4.18;2.30;;;27.70;49.10;;;;;;5011359;28;20033;-70
2021/07/30 13:29:04;;;;;;;4.82;2.35;;;27.80;48.90;;;;;;5012954;28;20170;-71
2021/07/30 13:31:49;;;;;;;4.47;2.15;;;27.80;48.50;;;;;;5011079;28;20098;-71
2021/07/30 13:34:34;;;;;;;6.63;2.08;;;27.90;48.50;;;;;;5011453;28;20561;-71
2021/07/30 13:37:18;;;;;;;6.70;2.40;;;28.10;48.20;;;;;;5008061;28;20032;-71
2021/07/30 13:40:02;;;;;;;4.57;2.05;;;28.10;48.10;;;;;;5009580;28;20058;-71
2021/07/30 13:42:46;;;;;;;6.05;2.30;;;28.10;48.10;;;;;;5007145;28;20073;-71
2021/07/30 13:45:31;;;;;;;4.68;2.65;;;28.20;48.30;;;;;;5007064;28;20044;-71
2021/07/30 13:48:15;;;;;;;6.40;2.08;;;28.20;47.80;;;;;;5011230;28;20053;-71
2021/07/30 13:51:05;;;;;;;3.97;2.03;;;28.30;47.60;;;;;;5009339;28;20124;-71
2021/07/30 13:53:51;;;;;;;5.13;2.33;;;28.30;47.40;;;;;;5010284;28;20057;-71
2021/07/30 13:56:36;;;;;;;3.40;2.05;;;28.40;47.10;;;;;;5008613;28;20120;-71
2021/07/30 13:59:22;;;;;;;4.80;2.00;;;28.40;47.60;;;;;;4999666;28;20662;-71